Time;durP1;ratioP1;P1;durP2;ratioP2;P2;SDS_P1;SDS_P2;PMS_P1;PMS_P2;Temp;Humidity;BMP_temperature;BMP_pressure;BME280_temperature;BME280_humidity;BME280_pressure;Samples;Min_cycle;Max_cycle;Signal;HPM_P1;HPM_P2
2023/08/05 00:00:41;;;;;;;5.45;4.07;;;;;;;15.50;100.00;97244.34;5038376;28;20943;-70
2023/08/05 00:03:07;;;;;;;5.78;3.95;;;;;;;15.49;100.00;97248.06;5030242;28;20892;-70
2023/08/05 00:05:33;;;;;;;7.50;4.47;;;;;;;15.48;100.00;97249.97;5030115;28;20498;-70
2023/08/05 00:08:01;;;;;;;7.63;4.13;;;;;;;15.48;100.00;97247.31;5029942;28;20454;-69
2023/08/05 00:10:27;;;;;;;8.43;4.28;;;;;;;15.47;100.00;97251.06;5029895;28;20418;-71
2023/08/05 00:12:54;;;;;;;6.22;4.22;;;;;;;15.46;100.00;97246.78;5029969;28;20403;-72
2023/08/05 00:15:20;;;;;;;5.30;4.10;;;;;;;15.46;100.00;97259.34;5030972;28;20407;-71
2023/08/05 00:17:46;;;;;;;5.70;4.00;;;;;;;15.44;100.00;97264.94;5033835;28;20560;-71
2023/08/05 00:20:12;;;;;;;5.55;3.80;;;;;;;15.43;100.00;97263.34;5032673;28;20734;-71
2023/08/05 00:22:38;;;;;;;5.10;3.88;;;;;;;15.42;100.00;97256.44;5033708;28;20463;-71
2023/08/05 00:25:06;;;;;;;4.57;3.63;;;;;;;15.42;100.00;97250.28;5033886;28;20817;-71
2023/08/05 00:27:33;;;;;;;8.00;4.43;;;;;;;15.41;100.00;97257.50;5033585;28;20457;-71
2023/08/05 00:29:59;;;;;;;6.93;4.00;;;;;;;15.39;100.00;97265.00;5033817;28;20418;-71
2023/08/05 00:32:27;;;;;;;4.80;3.40;;;;;;;15.37;100.00;97261.81;5033594;28;20399;-71
2023/08/05 00:34:53;;;;;;;7.05;4.18;;;;;;;15.37;100.00;97261.03;5033499;28;20486;-71
2023/08/05 00:37:19;;;;;;;4.07;3.65;;;;;;;15.37;100.00;97261.03;5033326;28;20417;-71
2023/08/05 00:39:45;;;;;;;4.82;3.58;;;;;;;15.37;100.00;97259.16;5033530;28;20503;-71
2023/08/05 00:42:18;;;;;;;8.30;4.18;;;;;;;15.37;100.00;97248.50;5033508;28;20558;-71
2023/08/05 00:44:44;;;;;;;8.10;3.88;;;;;;;15.37;100.00;97239.69;5053360;28;20401;-71
2023/08/05 00:47:10;;;;;;;9.00;4.32;;;;;;;15.38;100.00;97241.28;5053213;28;20401;-71
2023/08/05 00:49:37;;;;;;;6.47;3.97;;;;;;;15.36;100.00;97246.09;5053190;28;20517;-71
2023/08/05 00:52:06;;;;;;;5.10;4.10;;;;;;;15.34;100.00;97235.72;5053160;28;20409;-71
2023/08/05 00:54:33;;;;;;;4.63;3.63;;;;;;;15.32;100.00;97221.09;5053321;28;20398;-71
2023/08/05 00:56:59;;;;;;;6.20;3.90;;;;;;;15.31;100.00;97219.50;5051620;28;20420;-71
2023/08/05 00:59:27;;;;;;;6.07;4.07;;;;;;;15.30;100.00;97220.56;5053095;28;20410;-70
2023/08/05 01:01:53;;;;;;;5.45;4.05;;;;;;;15.26;100.00;97220.34;5052915;28;20767;-70
2023/08/05 01:04:20;;;;;;;6.35;4.43;;;;;;;15.25;100.00;97220.66;5053007;28;20555;-70
2023/08/05 01:06:46;;;;;;;7.63;4.45;;;;;;;15.24;100.00;97222.53;5052988;28;20401;-70
2023/08/05 01:09:12;;;;;;;8.67;4.83;;;;;;;15.19;100.00;97214.56;5052699;28;20440;-70
2023/08/05 01:11:39;;;;;;;7.07;4.30;;;;;;;15.19;100.00;97211.88;5052687;28;20483;-70
2023/08/05 01:14:05;;;;;;;6.85;4.40;;;;;;;15.17;100.00;97221.28;5052882;28;20759;-70
2023/08/05 01:16:33;;;;;;;4.80;3.60;;;;;;;15.15;100.00;97212.75;5052601;28;20410;-70
2023/08/05 01:19:00;;;;;;;5.95;4.10;;;;;;;15.14;100.00;97227.97;5052512;28;20488;-71
2023/08/05 01:21:35;;;;;;;6.30;4.38;;;;;;;15.14;100.00;97229.81;5052731;28;20407;-72
2023/08/05 01:24:10;;;;;;;8.93;4.22;;;;;;;15.13;100.00;97223.69;5052728;28;20412;-71
2023/08/05 01:26:39;;;;;;;6.05;4.15;;;;;;;15.13;100.00;97237.03;5051512;28;20945;-71
2023/08/05 01:29:06;;;;;;;6.27;3.93;;;;;;;15.11;100.00;97231.19;5052355;28;20408;-71
2023/08/05 01:31:32;;;;;;;6.00;3.70;;;;;;;15.10;100.00;97233.06;5052277;28;20424;-71
2023/08/05 01:33:59;;;;;;;4.93;3.58;;;;;;;15.10;100.00;97224.28;5052417;28;20496;-71
2023/08/05 01:36:25;;;;;;;6.10;4.00;;;;;;;15.09;100.00;97223.50;5052423;28;20480;-71
2023/08/05 01:38:52;;;;;;;6.05;3.50;;;;;;;15.09;100.00;97220.03;5052344;28;20409;-71
2023/08/05 01:41:18;;;;;;;8.57;4.50;;;;;;;15.09;100.00;97217.34;5052243;28;20402;-71
2023/08/05 01:43:45;;;;;;;5.75;4.10;;;;;;;15.10;100.00;97227.75;5052358;28;20463;-71
2023/08/05 01:46:12;;;;;;;4.40;3.70;;;;;;;15.08;100.00;97229.09;5052362;28;20401;-71
2023/08/05 01:48:38;;;;;;;6.65;4.43;;;;;;;15.07;100.00;97243.50;5052069;28;20895;-71
2023/08/05 01:51:04;;;;;;;7.55;3.97;;;;;;;15.06;100.00;97245.38;5052079;28;20413;-71
2023/08/05 01:53:30;;;;;;;6.38;4.00;;;;;;;15.07;100.00;97240.84;5052363;28;20752;-71
2023/08/05 01:55:56;;;;;;;4.85;3.65;;;;;;;15.05;100.00;97224.31;5052076;28;20413;-71
2023/08/05 01:58:22;;;;;;;6.28;3.80;;;;;;;15.05;100.00;97230.44;5042720;28;20394;-71
2023/08/05 02:00:53;;;;;;;4.55;3.58;;;;;;;15.04;100.00;97220.84;5032070;28;20403;-71
2023/08/05 02:03:19;;;;;;;5.40;3.60;;;;;;;15.03;100.00;97221.97;5031908;28;20406;-71
2023/08/05 02:05:46;;;;;;;6.30;3.83;;;;;;;15.02;100.00;97217.69;5032008;28;20501;-71
2023/08/05 02:08:12;;;;;;;5.40;3.80;;;;;;;15.00;100.00;97216.38;5031799;28;20490;-71
2023/08/05 02:10:39;;;;;;;5.88;3.80;;;;;;;14.98;100.00;97216.66;5031715;28;20422;-71
2023/08/05 02:13:06;;;;;;;5.68;3.78;;;;;;;14.96;100.00;97202.81;5031858;28;20912;-71
2023/08/05 02:15:32;;;;;;;4.70;3.83;;;;;;;14.94;100.00;97202.31;5031852;28;20446;-71
2023/08/05 02:17:59;;;;;;;9.13;4.45;;;;;;;14.91;100.00;97208.22;5031695;28;20422;-71
2023/08/05 02:20:26;;;;;;;6.50;3.75;;;;;;;14.87;100.00;97201.88;5031640;28;20401;-71
2023/08/05 02:22:52;;;;;;;4.15;3.20;;;;;;;14.85;100.00;97206.69;5031629;28;20407;-71
2023/08/05 02:25:18;;;;;;;4.55;3.20;;;;;;;14.83;100.00;97194.69;5031503;28;20399;-71
2023/08/05 02:27:44;;;;;;;4.47;3.20;;;;;;;14.79;100.00;97197.16;5031609;28;20542;-71
2023/08/05 02:30:10;;;;;;;4.95;3.50;;;;;;;14.78;100.00;97194.75;5031542;28;20438;-71
2023/08/05 02:32:37;;;;;;;6.25;3.88;;;;;;;14.75;100.00;97190.78;5031320;28;20931;-71
2023/08/05 02:35:05;;;;;;;10.98;4.40;;;;;;;14.71;100.00;97179.91;5031571;28;20403;-71
2023/08/05 02:37:31;;;;;;;7.47;4.40;;;;;;;14.68;100.00;97175.13;5031168;28;20411;-71
2023/08/05 02:39:57;;;;;;;8.60;4.33;;;;;;;14.66;100.00;97171.16;5031255;28;20438;-71
2023/08/05 02:42:23;;;;;;;7.22;4.47;;;;;;;14.62;100.00;97151.50;5031107;28;20407;-71
2023/08/05 02:44:50;;;;;;;6.47;4.35;;;;;;;14.60;100.00;97151.78;5044065;28;20405;-71
2023/08/05 02:47:16;;;;;;;7.20;4.78;;;;;;;14.57;100.00;97167.53;5034517;28;20418;-71
2023/08/05 02:49:42;;;;;;;8.90;4.93;;;;;;;14.55;100.00;97172.34;5031181;28;20900;-71
2023/08/05 02:52:10;;;;;;;7.28;4.80;;;;;;;14.54;100.00;97168.09;5031059;28;20411;-71
2023/08/05 02:54:36;;;;;;;9.30;4.75;;;;;;;14.50;100.00;97172.41;5031100;28;20789;-72
2023/08/05 02:57:03;;;;;;;6.72;4.43;;;;;;;14.48;100.00;97185.19;5030801;28;20407;-72
2023/08/05 02:59:29;;;;;;;7.13;4.82;;;;;;;14.46;100.00;97190.00;5030952;28;20407;-72
2023/08/05 03:01:55;;;;;;;10.50;5.33;;;;;;;14.45;100.00;97193.75;5030901;28;20407;-71
2023/08/05 03:04:21;;;;;;;7.10;4.75;;;;;;;14.43;100.00;97179.94;5030877;28;20904;-71
2023/08/05 03:06:48;;;;;;;7.63;4.40;;;;;;;14.41;100.00;97185.53;5030912;28;20403;-71
2023/08/05 03:09:15;;;;;;;5.20;4.25;;;;;;;14.40;100.00;97191.94;5030686;28;20414;-71
2023/08/05 03:11:41;;;;;;;7.57;4.50;;;;;;;14.39;100.00;97187.66;5030664;28;20419;-71
2023/08/05 03:14:08;;;;;;;7.57;4.68;;;;;;;14.38;100.00;97196.72;5030755;28;20415;-71
2023/08/05 03:16:34;;;;;;;7.63;4.70;;;;;;;14.37;100.00;97200.44;5030699;28;20399;-71
2023/08/05 03:19:00;;;;;;;7.78;4.70;;;;;;;14.37;100.00;97208.41;5030654;28;20437;-71
2023/08/05 03:21:26;;;;;;;6.72;5.07;;;;;;;14.40;100.00;97223.09;5030584;28;20794;-71
2023/08/05 03:23:52;;;;;;;8.13;4.80;;;;;;;14.39;100.00;97222.28;5030711;28;20407;-72
2023/08/05 03:26:20;;;;;;;6.78;4.78;;;;;;;14.42;100.00;97231.59;5030560;28;20435;-71
2023/08/05 03:28:46;;;;;;;9.32;5.20;;;;;;;14.43;100.00;97235.84;5030797;28;20761;-71
2023/08/05 03:31:12;;;;;;;7.03;4.35;;;;;;;14.44;100.00;97230.22;5030410;28;20423;-71
2023/08/05 03:33:38;;;;;;;4.13;3.63;;;;;;;14.46;100.00;97225.44;5030458;28;20972;-71
2023/08/05 03:36:05;;;;;;;7.53;4.57;;;;;;;14.49;100.00;97234.72;5030477;28;20410;-71
2023/08/05 03:38:31;;;;;;;8.60;4.95;;;;;;;14.50;100.00;97236.31;5030195;28;20486;-71
2023/08/05 03:41:03;;;;;;;9.98;5.50;;;;;;;14.50;100.00;97229.13;5030424;28;20418;-71
2023/08/05 03:43:30;;;;;;;10.57;5.95;;;;;;;14.51;100.00;97232.59;5030422;28;20395;-71
2023/08/05 03:45:56;;;;;;;8.43;5.20;;;;;;;14.50;100.00;97231.81;5030460;28;20474;-71
2023/08/05 03:48:22;;;;;;;9.65;5.07;;;;;;;14.52;100.00;97247.47;5030152;28;20490;-71
2023/08/05 03:50:49;;;;;;;7.95;5.07;;;;;;;14.51;100.00;97244.00;5029698;28;20419;-71
2023/08/05 03:53:15;;;;;;;9.13;5.60;;;;;;;14.54;100.00;97246.13;5030306;28;20881;-71
2023/08/05 03:55:41;;;;;;;10.27;6.13;;;;;;;14.52;100.00;97250.94;5030143;28;20411;-71
2023/08/05 03:58:07;;;;;;;10.23;5.25;;;;;;;14.56;100.00;97249.31;5030220;28;20414;-71
2023/08/05 04:00:39;;;;;;;8.50;5.00;;;;;;;14.53;100.00;97252.53;5030182;28;20418;-71
2023/08/05 04:03:05;;;;;;;7.70;4.67;;;;;;;14.53;100.00;97244.53;5030292;28;20407;-71
2023/08/05 04:05:31;;;;;;;8.23;4.75;;;;;;;14.54;100.00;97251.47;5030066;28;20468;-71
2023/08/05 04:07:57;;;;;;;6.82;4.88;;;;;;;14.53;100.00;97246.41;5030089;28;20431;-72
2023/08/05 04:10:24;;;;;;;7.43;4.82;;;;;;;14.52;100.00;97250.13;5030111;28;20415;-71
2023/08/05 04:12:50;;;;;;;7.97;5.22;;;;;;;14.50;100.00;97253.09;5030026;28;20403;-72
2023/08/05 04:15:18;;;;;;;6.18;4.32;;;;;;;14.50;100.00;97261.09;5030124;28;20434;-71
2023/08/05 04:17:47;;;;;;;8.60;5.55;;;;;;;14.49;100.00;97248.84;5042048;28;20397;-72
2023/08/05 04:20:14;;;;;;;8.63;5.18;;;;;;;14.49;100.00;97245.38;5050137;28;20401;-71
2023/08/05 04:22:40;;;;;;;7.10;5.07;;;;;;;14.48;100.00;97241.94;5049894;28;20484;-72
2023/08/05 04:25:07;;;;;;;10.50;6.20;;;;;;;14.49;100.00;97246.19;5049977;28;20488;-72
2023/08/05 04:27:33;;;;;;;7.83;4.87;;;;;;;14.49;100.00;97242.72;5049677;28;20771;-72
2023/08/05 04:30:01;;;;;;;9.68;5.40;;;;;;;14.50;100.00;97242.44;5048470;28;20421;-72
2023/08/05 04:32:28;;;;;;;6.10;4.57;;;;;;;14.50;100.00;97241.66;5049702;28;20441;-71
2023/08/05 04:34:55;;;;;;;10.32;4.82;;;;;;;14.52;100.00;97247.47;5049821;28;20405;-71
2023/08/05 04:37:22;;;;;;;6.53;4.40;;;;;;;14.52;100.00;97244.81;5049561;28;20393;-72
2023/08/05 04:39:49;;;;;;;5.75;4.47;;;;;;;14.54;100.00;97250.66;5049670;28;20402;-71
2023/08/05 04:42:15;;;;;;;6.93;4.40;;;;;;;14.53;100.00;97246.41;5049739;28;20455;-72
2023/08/05 04:44:42;;;;;;;5.05;4.05;;;;;;;14.55;100.00;97257.59;5049664;28;20408;-72
2023/08/05 04:47:09;;;;;;;9.37;5.00;;;;;;;14.54;100.00;97258.66;5049531;28;20914;-72
2023/08/05 04:49:38;;;;;;;8.38;4.90;;;;;;;14.55;100.00;97262.91;5049571;28;20398;-71
2023/08/05 04:52:07;;;;;;;9.30;4.57;;;;;;;14.54;100.00;97270.09;5049614;28;20488;-72
2023/08/05 04:54:37;;;;;;;7.20;4.32;;;;;;;14.54;100.00;97275.44;5049471;28;20415;-72
2023/08/05 04:57:04;;;;;;;5.57;3.90;;;;;;;14.55;100.00;97273.56;5049484;28;20414;-71
2023/08/05 04:59:30;;;;;;;6.68;4.30;;;;;;;14.54;100.00;97270.09;5039459;28;20435;-71
2023/08/05 05:01:57;;;;;;;5.57;3.90;;;;;;;14.55;100.00;97266.38;5028855;28;20489;-71
2023/08/05 05:04:23;;;;;;;7.57;4.20;;;;;;;14.55;100.00;97266.38;5033196;28;20414;-71
2023/08/05 05:06:49;;;;;;;8.07;4.57;;;;;;;14.56;100.00;97267.97;5033164;28;20407;-70
2023/08/05 05:09:17;;;;;;;7.63;5.40;;;;;;;14.57;100.00;97279.41;5033008;28;20399;-70
2023/08/05 05:11:43;;;;;;;7.47;4.68;;;;;;;14.57;100.00;97279.41;5044806;28;20441;-71
2023/08/05 05:14:09;;;;;;;7.00;4.55;;;;;;;14.58;100.00;97279.16;5052974;28;20417;-70
2023/08/05 05:16:36;;;;;;;7.60;4.33;;;;;;;14.59;100.00;97269.25;5033741;28;20414;-71
2023/08/05 05:19:02;;;;;;;5.10;3.97;;;;;;;14.61;100.00;97259.13;5032799;28;20403;-70
2023/08/05 05:21:29;;;;;;;6.53;4.53;;;;;;;14.62;100.00;97268.72;5032878;28;20410;-71
2023/08/05 05:23:55;;;;;;;7.47;4.93;;;;;;;14.67;100.00;97269.47;5032938;28;20395;-71
2023/08/05 05:26:23;;;;;;;7.70;5.00;;;;;;;14.64;100.00;97270.03;5032671;28;20399;-71
2023/08/05 05:28:49;;;;;;;6.43;4.25;;;;;;;14.66;100.00;97273.19;5032577;28;20417;-71
2023/08/05 05:31:15;;;;;;;11.15;4.47;;;;;;;14.66;100.00;97265.19;5031278;28;20827;-71
2023/08/05 05:33:45;;;;;;;8.48;4.97;;;;;;;14.67;100.00;97269.47;5032677;28;20426;-72
2023/08/05 05:36:11;;;;;;;6.28;4.25;;;;;;;14.68;100.00;97272.91;5032703;28;20407;-71
2023/08/05 05:38:37;;;;;;;8.85;5.03;;;;;;;14.68;100.00;97279.03;5032428;28;20489;-71
2023/08/05 05:41:03;;;;;;;9.57;5.20;;;;;;;14.69;100.00;97269.97;5032443;28;20400;-71
2023/08/05 05:43:31;;;;;;;9.63;5.05;;;;;;;14.70;100.00;97276.09;5032400;28;20403;-71
2023/08/05 05:45:57;;;;;;;8.90;5.00;;;;;;;14.70;100.00;97271.56;5032506;28;20407;-71
2023/08/05 05:48:23;;;;;;;6.32;4.53;;;;;;;14.70;100.00;97263.59;5032216;28;20395;-71
2023/08/05 05:50:52;;;;;;;6.32;4.00;;;;;;;14.69;100.00;97269.97;5032310;28;20750;-71
2023/08/05 05:53:18;;;;;;;6.18;4.43;;;;;;;14.69;100.00;97256.66;5032377;28;20399;-71
2023/08/05 05:55:45;;;;;;;10.82;4.80;;;;;;;14.69;100.00;97258.53;5032144;28;20411;-71
2023/08/05 05:58:11;;;;;;;8.35;4.35;;;;;;;14.69;100.00;97254.00;5032086;28;20403;-71
2023/08/05 06:00:39;;;;;;;7.70;4.63;;;;;;;14.75;100.00;97254.72;5032102;28;20411;-71
2023/08/05 06:03:05;;;;;;;8.55;4.82;;;;;;;14.76;100.00;97253.66;5032081;28;20399;-71
2023/08/05 06:05:31;;;;;;;9.07;4.47;;;;;;;14.79;100.00;97247.78;5031927;28;20753;-71
2023/08/05 06:07:57;;;;;;;5.43;3.95;;;;;;;14.84;100.00;97254.94;5031837;28;20500;-71
2023/08/05 06:10:24;;;;;;;6.60;3.85;;;;;;;14.90;100.00;97249.25;5031829;28;20418;-71
2023/08/05 06:12:50;;;;;;;7.10;4.10;;;;;;;14.90;100.00;97256.47;5031329;28;20403;-71
2023/08/05 06:15:16;;;;;;;8.35;4.05;;;;;;;14.94;100.00;97242.31;5031859;28;20885;-71
2023/08/05 06:17:46;;;;;;;4.43;3.40;;;;;;;14.98;100.00;97238.00;5031706;28;20410;-71
2023/08/05 06:20:12;;;;;;;9.30;4.53;;;;;;;15.06;100.00;97224.03;5031770;28;20478;-71
2023/08/05 06:22:38;;;;;;;5.65;3.45;;;;;;;15.12;100.00;97235.44;5031515;28;20976;-71
2023/08/05 06:25:05;;;;;;;6.35;3.50;;;;;;;15.17;100.00;97235.41;5031778;28;20759;-71
2023/08/05 06:27:31;;;;;;;5.50;3.17;;;;;;;15.24;100.00;97238.53;5031448;28;20773;-71
2023/08/05 06:29:58;;;;;;;3.97;3.40;;;;;;;15.32;100.00;97240.56;5031608;28;20426;-72
2023/08/05 06:32:24;;;;;;;5.80;3.33;;;;;;;15.38;100.00;97235.94;5031363;28;20403;-72
2023/08/05 06:34:52;;;;;;;4.80;2.90;;;;;;;15.46;100.00;97240.66;5031411;28;20403;-72
2023/08/05 06:37:18;;;;;;;4.63;2.58;;;;;;;15.55;100.00;97246.19;5031045;28;20967;-72
2023/08/05 06:39:44;;;;;;;4.38;2.95;;;;;;;15.61;100.00;97239.69;5031395;28;20469;-72
2023/08/05 06:42:10;;;;;;;7.78;3.95;;;;;;;15.65;100.00;97248.72;5031256;28;20861;-71
2023/08/05 06:44:37;;;;;;;5.18;3.33;;;;;;;15.65;100.00;97241.50;5029900;28;20419;-72
2023/08/05 06:47:04;;;;;;;3.95;2.97;;;;;;;15.68;100.00;97240.94;5031109;28;20905;-72
2023/08/05 06:49:30;;;;;;;5.72;3.05;;;;;;;15.70;100.00;97238.78;5031280;28;20457;-72
2023/08/05 06:51:57;;;;;;;2.67;2.23;;;;;;;15.74;100.00;97237.13;5030987;28;20505;-72
2023/08/05 06:54:23;;;;;;;2.83;2.45;;;;;;;15.79;100.00;97238.91;5031001;28;20435;-72
2023/08/05 06:56:51;;;;;;;5.17;2.93;;;;;;;15.80;100.00;97225.28;5030887;28;20422;-72
2023/08/05 06:59:17;;;;;;;7.03;3.70;;;;;;;15.76;100.00;97239.50;5030804;28;20422;-72
2023/08/05 07:01:44;;;;;;;5.83;3.47;;;;;;;15.75;100.00;97230.69;5030816;28;20434;-71
2023/08/05 07:04:10;;;;;;;3.63;2.55;;;;;;;15.76;100.00;97239.50;5030972;28;20438;-71
2023/08/05 07:06:36;;;;;;;7.23;4.27;;;;;;;15.79;100.00;97229.03;5029380;28;20830;-71
2023/08/05 07:09:03;;;;;;;5.63;3.50;;;;;;;15.81;100.00;97231.41;5030628;28;20925;-71
2023/08/05 07:11:30;;;;;;;5.20;3.77;;;;;;;15.75;100.00;97224.56;5030576;28;20418;-71
2023/08/05 07:13:56;;;;;;;3.65;2.90;;;;;;;15.72;100.00;97223.25;5030770;28;20969;-71
2023/08/05 07:16:22;;;;;;;3.70;2.67;;;;;;;15.79;100.00;97230.91;5030674;28;20453;-71
2023/08/05 07:18:48;;;;;;;4.63;2.58;;;;;;;15.85;100.00;97229.78;5030539;28;20636;-71
2023/08/05 07:21:17;;;;;;;3.25;2.55;;;;;;;15.92;100.00;97232.88;5030701;28;20711;-71
2023/08/05 07:23:44;;;;;;;4.40;2.92;;;;;;;15.99;100.00;97225.31;5030642;28;20448;-72
2023/08/05 07:26:11;;;;;;;3.00;2.70;;;;;;;16.08;100.00;97233.47;5029971;28;20487;-71
2023/08/05 07:28:37;;;;;;;4.38;2.63;;;;;;;16.17;100.00;97240.50;5030422;28;20422;-71
2023/08/05 07:31:05;;;;;;;4.30;3.13;;;;;;;16.25;100.00;97247.06;5030394;28;20418;-71
2023/08/05 07:33:32;;;;;;;5.97;3.00;;;;;;;16.36;100.00;97240.50;5030432;28;20402;-71
2023/08/05 07:36:06;;;;;;;5.30;3.03;;;;;;;16.43;100.00;97232.09;5030496;28;20415;-72
2023/08/05 07:38:35;;;;;;;4.60;3.03;;;;;;;16.49;100.00;97233.59;5030238;28;20498;-72
2023/08/05 07:41:01;;;;;;;3.13;2.60;;;;;;;16.59;100.00;97230.78;5030299;28;20431;-71
2023/08/05 07:43:32;;;;;;;6.68;3.55;;;;;;;16.66;100.00;97231.22;5030305;28;20450;-72
2023/08/05 07:45:59;;;;;;;6.43;2.75;;;;;;;16.75;100.00;97226.78;5030353;28;20414;-72
2023/08/05 07:48:25;;;;;;;3.95;2.63;;;;;;;16.81;100.00;97225.59;5030065;28;20434;-72
2023/08/05 07:50:51;;;;;;;4.30;2.60;;;;;;;16.85;100.00;97229.25;5030222;28;20415;-71
2023/08/05 07:53:20;;;;;;;7.35;3.72;;;;;;;16.87;100.00;97220.94;5030189;28;20765;-72
2023/08/05 07:55:47;;;;;;;3.97;2.60;;;;;;;16.89;100.00;97227.59;5029646;28;20430;-72
2023/08/05 07:58:13;;;;;;;5.18;3.15;;;;;;;16.94;100.00;97221.34;5030191;28;20407;-72
2023/08/05 08:00:40;;;;;;;3.00;2.30;;;;;;;17.02;100.00;97215.31;5030046;28;20431;-72
2023/08/05 08:03:06;;;;;;;3.38;2.20;;;;;;;17.08;100.00;97226.72;5030280;28;20407;-72
2023/08/05 08:05:33;;;;;;;5.22;2.35;;;;;;;17.14;100.00;97220.19;5030084;28;20407;-71
2023/08/05 08:08:00;;;;;;;4.40;2.67;;;;;;;17.22;100.00;97216.81;5029906;28;20457;-71
2023/08/05 08:10:26;;;;;;;4.43;2.70;;;;;;;17.31;100.00;97207.00;5029950;28;20505;-72
2023/08/05 08:12:52;;;;;;;9.20;4.07;;;;;;;17.36;100.00;97206.91;5030036;28;20775;-72
2023/08/05 08:15:18;;;;;;;3.35;2.47;;;;;;;17.52;100.00;97208.16;5029867;28;20411;-72
2023/08/05 08:17:46;;;;;;;4.07;2.40;;;;;;;17.69;100.00;97208.38;5029903;28;20399;-72
2023/08/05 08:20:12;;;;;;;2.83;2.03;;;;;;;17.91;100.00;97204.94;5030089;28;20568;-72
2023/08/05 08:22:38;;;;;;;3.75;2.22;;;;;;;18.06;100.00;97204.59;5029810;28;20419;-72
2023/08/05 08:25:05;;;;;;;3.08;2.22;;;;;;;18.21;100.00;97197.28;5030106;28;20434;-72
2023/08/05 08:27:31;;;;;;;3.67;2.15;;;;;;;18.29;100.00;97193.88;5029679;28;20414;-72
2023/08/05 08:29:57;;;;;;;3.25;2.10;;;;;;;18.34;100.00;97193.78;5029909;28;20407;-72
2023/08/05 08:32:24;;;;;;;2.75;2.00;;;;;;;18.39;100.00;97186.41;5029879;28;20430;-72
2023/08/05 08:34:51;;;;;;;2.13;1.83;;;;;;;18.47;100.00;97177.63;5028609;28;20415;-72
2023/08/05 08:37:17;;;;;;;3.38;1.70;;;;;;;18.57;100.00;97173.13;5032315;28;21004;-72
2023/08/05 08:39:44;;;;;;;2.67;1.80;;;;;;;18.71;100.00;97184.56;5033617;28;20595;-72
2023/08/05 08:42:10;;;;;;;2.80;1.92;;;;;;;18.86;100.00;97186.84;5033517;28;20812;-72
2023/08/05 08:44:38;;;;;;;2.67;1.92;;;;;;;18.95;100.00;97185.75;5033436;28;20399;-72
2023/08/05 08:47:05;;;;;;;2.45;1.90;;;;;;;19.06;100.00;97182.81;5033367;28;20431;-72
2023/08/05 08:49:34;;;;;;;2.55;1.75;;;;;;;19.21;100.00;97177.03;5033297;28;20456;-72
2023/08/05 08:52:02;;;;;;;6.55;2.53;;;;;;;19.44;100.00;97175.81;5033071;28;20438;-72
2023/08/05 08:54:29;;;;;;;3.47;2.30;;;;;;;19.47;100.00;97179.81;5033286;28;21001;-72
2023/08/05 08:56:55;;;;;;;2.88;1.77;;;;;;;19.23;100.00;97167.56;5032992;28;20437;-72
2023/08/05 08:59:21;;;;;;;2.70;1.80;;;;;;;19.03;100.00;97178.84;5033249;28;20431;-72
2023/08/05 09:01:49;;;;;;;1.98;1.77;;;;;;;19.00;100.00;97181.38;5033272;28;20406;-72
2023/08/05 09:04:16;;;;;;;3.45;2.03;;;;;;;19.07;100.00;97181.72;5033296;28;20399;-72
2023/08/05 09:06:45;;;;;;;5.28;2.40;;;;;;;19.20;100.00;97180.81;5044818;28;20484;-71
2023/08/05 09:09:12;;;;;;;3.58;2.05;;;;;;;19.24;100.00;97177.19;5052843;28;20401;-71
2023/08/05 09:11:38;;;;;;;2.70;1.70;;;;;;;19.20;100.00;97184.28;5052806;28;20438;-72
2023/08/05 09:14:04;;;;;;;1.77;1.60;;;;;;;19.28;100.00;97174.66;5051722;28;20485;-72
2023/08/05 09:16:31;;;;;;;1.50;1.40;;;;;;;19.43;100.00;97179.59;5052953;28;20409;-72
2023/08/05 09:18:57;;;;;;;1.48;1.38;;;;;;;19.63;100.00;97168.28;5052840;28;20409;-72
2023/08/05 09:21:24;;;;;;;1.65;1.30;;;;;;;19.82;100.00;97167.22;5052860;28;20401;-72
2023/08/05 09:23:53;;;;;;;1.77;1.30;;;;;;;20.01;100.00;97179.22;5052859;28;20443;-72
2023/08/05 09:26:28;;;;;;;1.40;1.30;;;;;;;20.25;100.00;97186.78;5052646;28;20408;-72
2023/08/05 09:28:54;;;;;;;1.58;1.40;;;;;;;20.51;100.00;97176.03;5051266;28;20496;-72
2023/08/05 09:31:20;;;;;;;2.00;1.60;;;;;;;20.80;100.00;97161.88;5052398;28;20417;-72
2023/08/05 09:33:47;;;;;;;2.50;1.70;;;;;;;21.03;100.00;97167.78;5052642;28;20754;-72
2023/08/05 09:36:21;;;;;;;2.13;1.40;;;;;;;21.13;100.00;97170.09;5052550;28;20405;-72
2023/08/05 09:39:00;;;;;;;2.73;1.60;;;;;;;20.97;100.00;97166.41;5052597;28;20422;-72
2023/08/05 09:41:31;;;;;;;2.35;1.50;;;;;;;20.68;100.00;97167.09;5052385;28;20871;-72
2023/08/05 09:43:58;;;;;;;2.27;1.47;;;;;;;20.42;100.00;97167.19;5052363;28;20968;-72
2023/08/05 09:46:32;;;;;;;1.60;1.50;;;;;;;20.41;100.00;97152.94;5052390;28;20459;-72
2023/08/05 09:48:58;;;;;;;1.30;1.20;;;;;;;20.63;100.00;97151.16;5051306;28;20409;-72
2023/08/05 09:51:27;;;;;;;1.33;1.23;;;;;;;20.91;100.00;97146.13;5052079;28;20934;-72
2023/08/05 09:53:54;;;;;;;1.95;1.35;;;;;;;21.09;100.00;97150.34;5052428;28;20869;-72
2023/08/05 09:56:21;;;;;;;1.90;1.50;;;;;;;21.03;100.00;97146.25;5052077;28;20515;-72
2023/08/05 09:58:49;;;;;;;2.13;1.73;;;;;;;20.84;100.00;97146.63;5052015;28;20854;-72
2023/08/05 10:01:18;;;;;;;2.70;1.80;;;;;;;20.63;100.00;97141.19;5051925;28;20425;-72
2023/08/05 10:03:48;;;;;;;1.95;1.58;;;;;;;20.43;100.00;97145.38;5052114;28;20402;-72
2023/08/05 10:06:15;;;;;;;2.60;1.98;;;;;;;20.31;100.00;97141.69;5051869;28;20497;-72
2023/08/05 10:08:42;;;;;;;2.20;1.60;;;;;;;20.19;100.00;97152.31;5051831;28;20401;-72
2023/08/05 10:11:08;;;;;;;2.33;1.70;;;;;;;20.05;100.00;97142.56;5051660;28;20420;-72
2023/08/05 10:13:38;;;;;;;3.42;1.80;;;;;;;19.95;100.00;97134.00;5051788;28;20454;-72
2023/08/05 10:16:08;;;;;;;2.28;1.70;;;;;;;19.87;100.00;97134.81;5051761;28;20394;-72
2023/08/05 10:18:35;;;;;;;1.90;1.58;;;;;;;19.86;100.00;97130.53;5051493;28;20429;-72
2023/08/05 10:21:05;;;;;;;2.95;1.60;;;;;;;19.94;100.00;97133.22;5051767;28;20451;-72
2023/08/05 10:23:34;;;;;;;2.33;1.80;;;;;;;20.21;100.00;97132.09;5051741;28;20452;-72
2023/08/05 10:26:02;;;;;;;1.92;1.42;;;;;;;20.58;100.00;97119.06;5051657;28;20394;-73
2023/08/05 10:28:42;;;;;;;1.52;1.40;;;;;;;20.83;100.00;97118.94;5051300;28;20405;-72
2023/08/05 10:31:26;;;;;;;2.30;1.50;;;;;;;20.88;100.00;97119.88;5051312;28;20436;-72
2023/08/05 10:34:09;;;;;;;1.95;1.63;;;;;;;20.76;100.00;97125.94;5051436;28;20397;-72
2023/08/05 10:36:42;;;;;;;2.03;1.40;;;;;;;20.57;100.00;97117.47;5051309;28;20798;-72
2023/08/05 10:39:39;;;;;;;2.67;1.90;;;;;;;20.37;100.00;97111.66;5051190;28;20412;-72
2023/08/05 10:42:34;;;;;;;2.15;1.67;;;;;;;20.17;100.00;97117.69;5051282;28;20879;-72
2023/08/05 10:45:03;;;;;;;2.08;1.80;;;;;;;19.98;100.00;97123.44;5051228;28;20435;-72
2023/08/05 10:47:32;;;;;;;2.17;1.83;;;;;;;19.84;100.00;97111.28;5050863;28;20429;-72
2023/08/05 10:49:58;;;;;;;2.50;1.88;;;;;;;19.74;100.00;97119.66;5051101;28;20412;-72
2023/08/05 10:52:25;;;;;;;1.92;1.65;;;;;;;19.64;100.00;97107.31;5050844;28;20421;-72
2023/08/05 10:54:53;;;;;;;2.83;1.70;;;;;;;19.55;100.00;97107.31;5051125;28;20440;-72
2023/08/05 10:57:45;;;;;;;1.83;1.63;;;;;;;19.47;100.00;97099.28;5050911;28;20411;-72
2023/08/05 11:00:20;;;;;;;2.25;1.65;;;;;;;19.39;100.00;97103.50;5051013;28;20425;-72
2023/08/05 11:02:49;;;;;;;1.60;1.50;;;;;;;19.32;100.00;97098.56;5050904;28;20736;-72
2023/08/05 11:05:16;;;;;;;1.70;1.60;;;;;;;19.29;100.00;97096.53;5050840;28;20405;-72
2023/08/05 11:07:43;;;;;;;1.83;1.40;;;;;;;19.28;100.00;97096.84;5050643;28;20432;-72
2023/08/05 11:10:11;;;;;;;1.40;1.30;;;;;;;19.30;100.00;97090.06;5050831;28;20406;-72
2023/08/05 11:12:39;;;;;;;1.83;1.40;;;;;;;19.35;100.00;97089.13;5050708;28;20425;-72
2023/08/05 11:15:06;;;;;;;1.45;1.35;;;;;;;19.42;100.00;97084.06;5050819;28;20397;-72
2023/08/05 11:17:32;;;;;;;1.30;1.20;;;;;;;19.50;100.00;97077.94;5050638;28;20839;-72
2023/08/05 11:20:00;;;;;;;1.53;1.40;;;;;;;19.59;100.00;97078.75;5050638;28;20490;-72
2023/08/05 11:22:27;;;;;;;1.80;1.40;;;;;;;19.68;100.00;97073.38;5050466;28;20394;-72
2023/08/05 11:24:57;;;;;;;2.13;1.70;;;;;;;19.74;100.00;97072.09;5050618;28;20763;-72